createdAt,value
2019-03-01T00:00:26.146Z,964.83
2019-03-01T00:01:26.131Z,964.85
2019-03-01T00:02:26.110Z,964.79
2019-03-01T00:03:26.113Z,964.75
2019-03-01T00:04:26.079Z,964.73
2019-03-01T00:05:26.074Z,964.74
2019-03-01T00:06:26.057Z,964.71
2019-03-01T00:07:26.068Z,964.65
2019-03-01T00:08:26.030Z,964.68
2019-03-01T00:09:26.019Z,964.74
2019-03-01T00:10:26.828Z,964.64
2019-03-01T00:11:26.019Z,964.62
2019-03-01T00:12:26.007Z,964.69
2019-03-01T00:13:25.974Z,964.62
2019-03-01T00:14:25.981Z,964.63
2019-03-01T00:15:25.959Z,964.59
2019-03-01T00:16:25.960Z,964.63
2019-03-01T00:17:25.980Z,964.62
2019-03-01T00:18:25.951Z,964.69
2019-03-01T00:19:25.912Z,964.71
2019-03-01T00:20:25.935Z,964.62
2019-03-01T00:21:25.915Z,964.67
2019-03-01T00:22:25.892Z,964.60
2019-03-01T00:23:25.914Z,964.66
2019-03-01T00:24:25.862Z,964.65
2019-03-01T00:25:25.875Z,964.64
2019-03-01T00:26:25.854Z,964.64
2019-03-01T00:27:25.906Z,964.61
2019-03-01T00:28:25.806Z,964.65
2019-03-01T00:29:25.807Z,964.65
2019-03-01T00:30:25.792Z,964.65
2019-03-01T00:31:25.799Z,964.61
2019-03-01T00:32:25.783Z,964.68
2019-03-01T00:33:25.784Z,964.62
2019-03-01T00:34:25.749Z,964.67
2019-03-01T00:35:25.763Z,964.58
2019-03-01T00:36:25.726Z,964.58
2019-03-01T00:37:25.759Z,964.57
2019-03-01T00:38:25.738Z,964.55
2019-03-01T00:39:25.694Z,964.60
2019-03-01T00:40:25.710Z,964.59
2019-03-01T00:41:25.702Z,964.55
2019-03-01T00:42:25.679Z,964.51
2019-03-01T00:43:25.658Z,964.47
2019-03-01T00:44:25.660Z,964.50
2019-03-01T00:45:25.654Z,964.51
2019-03-01T00:46:25.632Z,964.53
2019-03-01T00:47:25.604Z,964.46
2019-03-01T00:48:25.619Z,964.50
2019-03-01T00:49:25.576Z,964.50
2019-03-01T00:50:25.571Z,964.47
2019-03-01T00:51:25.559Z,964.48
2019-03-01T00:52:25.556Z,964.42
2019-03-01T00:53:25.549Z,964.40
2019-03-01T00:54:25.555Z,964.40
2019-03-01T00:55:25.511Z,964.38
2019-03-01T00:56:25.520Z,964.41
2019-03-01T00:57:25.505Z,964.40
2019-03-01T00:58:25.485Z,964.40
2019-03-01T00:59:25.486Z,964.37
2019-03-01T01:00:25.459Z,964.39
2019-03-01T01:01:25.452Z,964.35
2019-03-01T01:02:25.443Z,964.38
2019-03-01T01:03:25.477Z,964.39
2019-03-01T01:04:25.410Z,964.33
2019-03-01T01:05:25.410Z,964.37
2019-03-01T01:06:25.398Z,964.36
2019-03-01T01:07:25.388Z,964.36
2019-03-01T01:08:25.407Z,964.32
2019-03-01T01:09:25.400Z,964.33
2019-03-01T01:10:25.351Z,964.35
2019-03-01T01:11:25.384Z,964.34
2019-03-01T01:12:25.378Z,964.34
2019-03-01T01:13:25.325Z,964.25
2019-03-01T01:14:25.334Z,964.26
2019-03-01T01:15:25.313Z,964.29
2019-03-01T01:16:25.309Z,964.23
2019-03-01T01:17:25.282Z,964.20
2019-03-01T01:18:32.886Z,964.17
2019-03-01T01:19:25.319Z,964.22
2019-03-01T01:20:25.300Z,964.19
2019-03-01T01:21:25.250Z,964.22
2019-03-01T01:22:25.256Z,964.25
2019-03-01T01:23:25.221Z,964.22
2019-03-01T01:24:25.215Z,964.20
2019-03-01T01:25:25.210Z,964.19
2019-03-01T01:26:25.172Z,964.20
2019-03-01T01:27:25.203Z,964.19
2019-03-01T01:28:25.158Z,964.14
2019-03-01T01:29:25.194Z,964.17
2019-03-01T01:30:25.162Z,964.21
2019-03-01T01:31:25.117Z,964.19
2019-03-01T01:32:25.152Z,964.17
2019-03-01T01:33:25.116Z,964.17
2019-03-01T01:34:25.079Z,964.19
2019-03-01T01:35:25.093Z,964.16
2019-03-01T01:36:25.057Z,964.13
2019-03-01T01:37:25.078Z,964.13
2019-03-01T01:38:25.046Z,964.20
2019-03-01T01:39:25.025Z,964.13
2019-03-01T01:40:25.048Z,964.09
2019-03-01T01:41:25.040Z,964.01
2019-03-01T01:42:25.028Z,963.93
2019-03-01T01:43:24.989Z,963.92
2019-03-01T01:44:24.984Z,963.96
2019-03-01T01:45:24.964Z,963.90
2019-03-01T01:46:24.964Z,963.86
2019-03-01T01:47:24.949Z,963.87
2019-03-01T01:48:24.949Z,963.79
2019-03-01T01:49:24.926Z,963.77
2019-03-01T01:50:24.939Z,963.76
2019-03-01T01:51:24.904Z,963.75
2019-03-01T01:52:24.885Z,963.76
2019-03-01T01:53:24.903Z,963.70
2019-03-01T01:54:24.868Z,963.70
2019-03-01T01:55:24.878Z,963.71
2019-03-01T01:56:24.873Z,963.76
2019-03-01T01:57:24.837Z,963.72
2019-03-01T01:58:24.848Z,963.75
2019-03-01T01:59:24.822Z,963.70
2019-03-01T02:00:24.806Z,963.72
2019-03-01T02:01:24.792Z,963.72
2019-03-01T02:02:24.776Z,963.67
2019-03-01T02:03:24.774Z,963.62
2019-03-01T02:04:24.758Z,963.61
2019-03-01T02:05:24.749Z,963.60
2019-03-01T02:06:24.743Z,963.59
2019-03-01T02:07:24.744Z,963.61
2019-03-01T02:08:24.703Z,963.57
2019-03-01T02:09:24.726Z,963.54
2019-03-01T02:10:24.690Z,963.54
2019-03-01T02:11:24.692Z,963.54
2019-03-01T02:12:24.685Z,963.52
2019-03-01T02:13:24.666Z,963.44
2019-03-01T02:14:24.687Z,963.47
2019-03-01T02:15:24.635Z,963.48
2019-03-01T02:16:24.617Z,963.49
2019-03-01T02:17:24.632Z,963.43
2019-03-01T02:18:24.622Z,963.43
2019-03-01T02:19:24.588Z,963.41
2019-03-01T02:20:24.597Z,963.40
2019-03-01T02:21:24.563Z,963.43
2019-03-01T02:22:24.551Z,963.39
2019-03-01T02:23:24.595Z,963.38
2019-03-01T02:24:24.549Z,963.36
2019-03-01T02:25:24.515Z,963.33
2019-03-01T02:26:24.520Z,963.33
2019-03-01T02:27:24.513Z,963.30
2019-03-01T02:28:24.522Z,963.28
2019-03-01T02:29:24.509Z,963.35
2019-03-01T02:30:24.459Z,963.30
2019-03-01T02:31:24.466Z,963.26
2019-03-01T02:32:24.474Z,963.22
2019-03-01T02:33:24.425Z,963.24
2019-03-01T02:34:24.439Z,963.28
2019-03-01T02:35:24.435Z,963.16
2019-03-01T02:36:24.395Z,963.21
2019-03-01T02:37:24.384Z,963.16
2019-03-01T02:38:24.407Z,963.16
2019-03-01T02:39:24.374Z,963.15
2019-03-01T02:40:24.366Z,963.11
2019-03-01T02:41:24.369Z,963.06
2019-03-01T02:42:24.367Z,963.02
2019-03-01T02:43:24.329Z,963.02
2019-03-01T02:44:24.317Z,963.08
2019-03-01T02:45:24.299Z,963.02
2019-03-01T02:46:24.297Z,962.99
2019-03-01T02:47:24.279Z,962.98
2019-03-01T02:48:24.289Z,962.96
2019-03-01T02:49:24.267Z,963.04
2019-03-01T02:50:24.244Z,963.02
2019-03-01T02:51:24.239Z,963.00
2019-03-01T02:52:24.215Z,962.99
2019-03-01T02:53:24.252Z,963.02
2019-03-01T02:54:24.194Z,962.99
2019-03-01T02:55:24.184Z,962.93
2019-03-01T02:56:24.173Z,962.96
2019-03-01T02:57:24.182Z,962.95
2019-03-01T02:58:24.173Z,962.91
2019-03-01T02:59:24.175Z,962.95
2019-03-01T03:00:24.170Z,962.93
2019-03-01T03:01:24.114Z,962.90
2019-03-01T03:02:24.111Z,962.87
2019-03-01T03:03:24.110Z,962.88
2019-03-01T03:04:24.092Z,962.81
2019-03-01T03:05:24.118Z,962.87
2019-03-01T03:06:24.077Z,962.85
2019-03-01T03:07:24.067Z,962.80
2019-03-01T03:08:24.050Z,962.78
2019-03-01T03:09:24.044Z,962.78
2019-03-01T03:10:24.045Z,962.74
2019-03-01T03:11:24.026Z,962.74
2019-03-01T03:12:23.992Z,962.70
2019-03-01T03:13:24.000Z,962.73
2019-03-01T03:14:24.000Z,962.70
2019-03-01T03:15:23.985Z,962.74
2019-03-01T03:16:23.989Z,962.69
2019-03-01T03:17:23.968Z,962.71
2019-03-01T03:18:23.941Z,962.68
2019-03-01T03:19:23.941Z,962.71
2019-03-01T03:20:23.942Z,962.67
2019-03-01T03:21:23.901Z,962.71
2019-03-01T03:22:23.881Z,962.70
2019-03-01T03:23:23.905Z,962.74
2019-03-01T03:24:23.869Z,962.69
2019-03-01T03:25:24.007Z,962.69
2019-03-01T03:26:23.847Z,962.64
2019-03-01T03:27:23.838Z,962.63
2019-03-01T03:28:23.813Z,962.67
2019-03-01T03:29:23.827Z,962.73
2019-03-01T03:30:23.879Z,962.74
2019-03-01T03:31:23.825Z,962.78
2019-03-01T03:32:23.788Z,962.79
2019-03-01T03:33:23.794Z,962.83
2019-03-01T03:34:23.791Z,962.77
2019-03-01T03:35:23.788Z,962.78
2019-03-01T03:36:23.745Z,962.77
2019-03-01T03:37:23.752Z,962.74
2019-03-01T03:38:23.720Z,962.73
2019-03-01T03:39:23.725Z,962.73
2019-03-01T03:40:23.761Z,962.66
2019-03-01T03:41:23.675Z,962.76
2019-03-01T03:42:23.672Z,962.70
2019-03-01T03:43:23.661Z,962.63
2019-03-01T03:44:23.635Z,962.72
2019-03-01T03:45:23.690Z,962.70
2019-03-01T03:46:23.632Z,962.66
2019-03-01T03:47:23.648Z,962.69
2019-03-01T03:48:23.600Z,962.68
2019-03-01T03:49:23.591Z,962.71
2019-03-01T03:50:23.602Z,962.70
2019-03-01T03:51:23.591Z,962.63
2019-03-01T03:52:23.545Z,962.69
2019-03-01T03:53:23.568Z,962.67
2019-03-01T03:54:23.586Z,962.70
2019-03-01T03:55:23.535Z,962.67
2019-03-01T03:56:23.511Z,962.71
2019-03-01T03:57:23.512Z,962.68
2019-03-01T03:58:23.496Z,962.62
2019-03-01T03:59:23.511Z,962.64
2019-03-01T04:00:23.466Z,962.63
2019-03-01T04:01:23.465Z,962.60
2019-03-01T04:02:23.525Z,962.58
2019-03-01T04:03:23.444Z,962.54
2019-03-01T04:04:23.437Z,962.56
2019-03-01T04:05:23.430Z,962.56
2019-03-01T04:06:23.413Z,962.52
2019-03-01T04:07:23.415Z,962.50
2019-03-01T04:08:23.389Z,962.49
2019-03-01T04:09:23.367Z,962.58
2019-03-01T04:10:23.352Z,962.48
2019-03-01T04:11:23.347Z,962.45
2019-03-01T04:12:23.329Z,962.41
2019-03-01T04:13:23.340Z,962.46
2019-03-01T04:14:23.339Z,962.45
2019-03-01T04:15:23.310Z,962.42
2019-03-01T04:16:23.289Z,962.47
2019-03-01T04:17:23.290Z,962.40
2019-03-01T04:18:23.286Z,962.41
2019-03-01T04:19:23.274Z,962.41
2019-03-01T04:20:23.271Z,962.39
2019-03-01T04:21:23.223Z,962.39
2019-03-01T04:22:23.230Z,962.39
2019-03-01T04:23:23.257Z,962.41
2019-03-01T04:24:23.205Z,962.38
2019-03-01T04:25:23.180Z,962.38
2019-03-01T04:26:23.178Z,962.37
2019-03-01T04:27:23.166Z,962.39
2019-03-01T04:28:23.167Z,962.38
2019-03-01T04:29:23.152Z,962.37
2019-03-01T04:30:23.131Z,962.40
2019-03-01T04:31:23.117Z,962.38
2019-03-01T04:32:23.103Z,962.36
2019-03-01T04:33:23.100Z,962.34
2019-03-01T04:34:23.086Z,962.35
2019-03-01T04:35:23.097Z,962.35
2019-03-01T04:36:30.458Z,962.37
2019-03-01T04:37:23.061Z,962.37
2019-03-01T04:38:23.073Z,962.32
2019-03-01T04:39:23.058Z,962.38
2019-03-01T04:40:23.093Z,962.34
2019-03-01T04:41:23.186Z,962.33
2019-03-01T04:42:23.026Z,962.33
2019-03-01T04:43:23.005Z,962.33
2019-03-01T04:44:22.999Z,962.32
2019-03-01T04:45:22.979Z,962.26
2019-03-01T04:46:22.957Z,962.29
2019-03-01T04:47:22.952Z,962.29
2019-03-01T04:48:22.981Z,962.28
2019-03-01T04:49:22.936Z,962.24
2019-03-01T04:50:22.931Z,962.24
2019-03-01T04:51:22.921Z,962.24
2019-03-01T04:52:22.912Z,962.23
2019-03-01T04:53:22.871Z,962.17
2019-03-01T04:54:30.170Z,962.21
2019-03-01T04:55:22.907Z,962.22
2019-03-01T04:56:22.857Z,962.20
2019-03-01T04:57:22.894Z,962.20
2019-03-01T04:58:22.886Z,962.17
2019-03-01T04:59:22.964Z,962.19
2019-03-01T05:00:22.818Z,962.19
2019-03-01T05:01:22.782Z,962.20
2019-03-01T05:02:22.809Z,962.18
2019-03-01T05:03:22.756Z,962.24
2019-03-01T05:04:22.744Z,962.21
2019-03-01T05:05:22.770Z,962.24
2019-03-01T05:06:22.726Z,962.22
2019-03-01T05:07:22.724Z,962.25
2019-03-01T05:08:22.715Z,962.23
2019-03-01T05:09:22.688Z,962.23
2019-03-01T05:10:22.687Z,962.22
2019-03-01T05:11:22.670Z,962.28
2019-03-01T05:12:22.659Z,962.22
2019-03-01T05:13:22.669Z,962.21
2019-03-01T05:14:22.641Z,962.22
2019-03-01T05:15:22.633Z,962.22
2019-03-01T05:16:22.642Z,962.25
2019-03-01T05:17:22.604Z,962.17
2019-03-01T05:18:22.614Z,962.20
2019-03-01T05:19:22.578Z,962.17
2019-03-01T05:20:22.577Z,962.15
2019-03-01T05:21:22.568Z,962.10
2019-03-01T05:22:22.570Z,962.11
2019-03-01T05:23:22.541Z,962.06
2019-03-01T05:24:22.534Z,962.05
2019-03-01T05:25:22.509Z,962.08
2019-03-01T05:26:22.501Z,962.06
2019-03-01T05:27:22.511Z,962.01
2019-03-01T05:28:22.476Z,962.02
2019-03-01T05:29:22.510Z,962.05
2019-03-01T05:30:22.456Z,961.95
2019-03-01T05:31:22.449Z,961.98
2019-03-01T05:32:22.435Z,962.01
2019-03-01T05:33:22.425Z,962.07
2019-03-01T05:34:22.436Z,962.07
2019-03-01T05:35:22.423Z,962.02
2019-03-01T05:36:22.391Z,962.08
2019-03-01T05:37:22.382Z,962.05
2019-03-01T05:38:22.364Z,962.03
2019-03-01T05:39:22.361Z,962.07
2019-03-01T05:40:22.374Z,962.13
2019-03-01T05:41:22.358Z,962.07
2019-03-01T05:42:22.321Z,962.08
2019-03-01T05:43:22.313Z,962.12
2019-03-01T05:44:22.295Z,962.18
2019-03-01T05:45:22.306Z,962.08
2019-03-01T05:46:22.275Z,962.14
2019-03-01T05:47:29.509Z,962.21
2019-03-01T05:48:29.628Z,962.13
2019-03-01T05:49:22.277Z,962.23
2019-03-01T05:50:22.266Z,962.19
2019-03-01T05:51:22.230Z,962.22
2019-03-01T05:52:22.251Z,962.17
2019-03-01T05:53:22.198Z,962.22
2019-03-01T05:54:22.239Z,962.26
2019-03-01T05:55:22.216Z,962.19
2019-03-01T05:56:22.290Z,962.22
2019-03-01T05:57:22.647Z,962.21
2019-03-01T05:58:22.201Z,962.17
2019-03-01T05:59:22.130Z,962.13
2019-03-01T06:00:22.170Z,962.21
2019-03-01T06:01:22.162Z,962.18
2019-03-01T06:02:22.098Z,962.22
2019-03-01T06:03:22.179Z,962.22
2019-03-01T06:04:22.134Z,962.21
2019-03-01T06:05:22.165Z,962.17
2019-03-01T06:06:22.159Z,962.24
2019-03-01T06:07:22.072Z,962.22
2019-03-01T06:08:22.051Z,962.23
2019-03-01T06:09:22.019Z,962.16
2019-03-01T06:10:22.038Z,962.18
2019-03-01T06:11:22.044Z,962.19
2019-03-01T06:12:21.984Z,962.16
2019-03-01T06:13:22.038Z,962.15
2019-03-01T06:14:21.960Z,962.17
2019-03-01T06:15:21.951Z,962.13
2019-03-01T06:16:22.037Z,962.13
2019-03-01T06:17:21.955Z,962.11
2019-03-01T06:18:21.918Z,962.06
2019-03-01T06:19:21.942Z,962.01
2019-03-01T06:20:21.920Z,961.98
2019-03-01T06:21:21.940Z,962.08
2019-03-01T06:22:21.919Z,962.05
2019-03-01T06:23:21.888Z,962.01
2019-03-01T06:24:21.907Z,962.02
2019-03-01T06:25:21.845Z,962.05
2019-03-01T06:26:21.851Z,962.03
2019-03-01T06:27:21.938Z,962.01
2019-03-01T06:28:21.843Z,962.03
2019-03-01T06:29:21.833Z,962.03
2019-03-01T06:30:21.807Z,962.03
2019-03-01T06:31:28.862Z,962.01
2019-03-01T06:32:21.794Z,962.02
2019-03-01T06:33:21.748Z,962.02
2019-03-01T06:34:21.739Z,962.01
2019-03-01T06:35:21.740Z,962.03
2019-03-01T06:36:21.733Z,962.00
2019-03-01T06:37:21.706Z,962.06
2019-03-01T06:38:21.723Z,962.05
2019-03-01T06:39:21.684Z,962.01
2019-03-01T06:40:21.681Z,962.04
2019-03-01T06:41:21.659Z,962.07
2019-03-01T06:42:21.667Z,962.01
2019-03-01T06:43:21.661Z,962.07
2019-03-01T06:44:21.689Z,962.07
2019-03-01T06:45:21.622Z,962.02
2019-03-01T06:46:29.248Z,962.03
2019-03-01T06:47:21.647Z,962.00
2019-03-01T06:48:21.646Z,962.00
2019-03-01T06:49:21.582Z,962.04
2019-03-01T06:50:21.574Z,962.03
2019-03-01T06:51:28.540Z,961.97
2019-03-01T06:52:22.542Z,961.93
2019-03-01T06:53:21.538Z,961.92
2019-03-01T06:54:21.526Z,961.99
2019-03-01T06:55:21.528Z,961.96
2019-03-01T06:56:21.515Z,961.97
2019-03-01T06:57:21.500Z,961.90
2019-03-01T06:58:21.480Z,961.94
2019-03-01T06:59:21.499Z,961.97
2019-03-01T07:00:21.486Z,961.92
2019-03-01T07:01:21.438Z,962.03
2019-03-01T07:02:21.447Z,961.97
2019-03-01T07:03:21.434Z,961.88
2019-03-01T07:04:21.410Z,961.91
2019-03-01T07:05:21.432Z,961.89
2019-03-01T07:06:21.390Z,961.92
2019-03-01T07:07:21.390Z,961.87
2019-03-01T07:08:21.378Z,961.90
2019-03-01T07:09:21.378Z,961.89
2019-03-01T07:10:21.411Z,961.90
2019-03-01T07:11:21.329Z,961.86
2019-03-01T07:12:21.352Z,961.90
2019-03-01T07:13:21.328Z,961.89
2019-03-01T07:14:21.303Z,961.85
2019-03-01T07:15:21.294Z,961.86
2019-03-01T07:16:21.278Z,961.89
2019-03-01T07:17:21.279Z,961.83
2019-03-01T07:18:21.261Z,961.82
2019-03-01T07:19:21.260Z,961.83
2019-03-01T07:20:21.245Z,961.87
2019-03-01T07:21:21.254Z,961.81
2019-03-01T07:22:21.218Z,961.80
2019-03-01T07:23:21.211Z,961.79
2019-03-01T07:24:21.273Z,961.77
2019-03-01T07:25:21.169Z,961.83
2019-03-01T07:26:21.203Z,961.74
2019-03-01T07:27:21.151Z,961.72
2019-03-01T07:28:21.135Z,961.70
2019-03-01T07:29:21.127Z,961.73
2019-03-01T07:30:21.135Z,961.82
2019-03-01T07:31:21.101Z,961.69
2019-03-01T07:32:21.196Z,961.71
2019-03-01T07:33:21.089Z,961.77
2019-03-01T07:34:21.083Z,961.69
2019-03-01T07:35:21.066Z,961.75
2019-03-01T07:36:21.052Z,961.74
2019-03-01T07:37:21.928Z,961.68
2019-03-01T07:38:21.029Z,961.73
2019-03-01T07:39:21.036Z,961.67
2019-03-01T07:40:21.010Z,961.70
2019-03-01T07:41:21.055Z,961.68
2019-03-01T07:42:21.009Z,961.63
2019-03-01T07:43:20.972Z,961.65
2019-03-01T07:44:20.982Z,961.71
2019-03-01T07:45:20.997Z,961.67
2019-03-01T07:46:20.953Z,961.69
2019-03-01T07:47:20.926Z,961.69
2019-03-01T07:48:20.928Z,961.67
2019-03-01T07:49:20.910Z,961.68
2019-03-01T07:50:20.953Z,961.67
2019-03-01T07:51:20.937Z,961.69
2019-03-01T07:52:20.892Z,961.64
2019-03-01T07:53:20.907Z,961.67
2019-03-01T07:54:22.340Z,961.63
2019-03-01T07:55:20.840Z,961.69
2019-03-01T07:56:20.849Z,961.66
2019-03-01T07:57:28.172Z,961.63
2019-03-01T07:58:21.767Z,961.63
2019-03-01T07:59:20.867Z,961.54
2019-03-01T08:00:20.784Z,961.58
2019-03-01T08:01:20.784Z,961.56
2019-03-01T08:02:20.774Z,961.51
2019-03-01T08:03:20.760Z,961.55
2019-03-01T08:04:23.690Z,961.55
2019-03-01T08:05:21.737Z,961.52
2019-03-01T08:06:20.775Z,961.57
2019-03-01T08:07:23.538Z,961.55
2019-03-01T08:08:20.742Z,961.57
2019-03-01T08:09:20.691Z,961.59
2019-03-01T08:10:22.748Z,961.55
2019-03-01T08:11:20.667Z,961.60
2019-03-01T08:12:20.681Z,961.52
2019-03-01T08:13:21.514Z,961.55
2019-03-01T08:14:20.674Z,961.55
2019-03-01T08:15:20.634Z,961.58
2019-03-01T08:16:21.539Z,961.53
2019-03-01T08:17:31.616Z,961.53
2019-03-01T08:18:20.601Z,961.59
2019-03-01T08:19:22.434Z,961.55
2019-03-01T08:20:20.569Z,961.51
2019-03-01T08:21:20.549Z,961.52
2019-03-01T08:22:20.842Z,961.52
2019-03-01T08:23:20.541Z,961.48
2019-03-01T08:24:20.527Z,961.47
2019-03-01T08:25:23.745Z,961.51
2019-03-01T08:26:20.507Z,961.47
2019-03-01T08:27:20.511Z,961.58
2019-03-01T08:28:21.925Z,961.51
2019-03-01T08:29:20.471Z,961.53
2019-03-01T08:30:20.479Z,961.58
2019-03-01T08:31:21.116Z,961.54
2019-03-01T08:32:20.458Z,961.52
2019-03-01T08:33:20.425Z,961.57
2019-03-01T08:34:20.409Z,961.48
2019-03-01T08:35:20.413Z,961.43
2019-03-01T08:36:20.381Z,961.54
2019-03-01T08:37:21.049Z,961.57
2019-03-01T08:38:20.392Z,961.49
2019-03-01T08:39:20.352Z,961.52
2019-03-01T08:40:20.338Z,961.48
2019-03-01T08:41:21.522Z,961.55
2019-03-01T08:42:20.353Z,961.43
2019-03-01T08:43:20.384Z,961.49
2019-03-01T08:44:23.094Z,961.53
2019-03-01T08:45:20.307Z,961.45
2019-03-01T08:46:20.275Z,961.42
2019-03-01T08:47:23.566Z,961.45
2019-03-01T08:48:20.256Z,961.45
2019-03-01T08:49:20.252Z,961.49
2019-03-01T08:50:20.267Z,961.45
2019-03-01T08:51:22.617Z,961.41
2019-03-01T08:52:21.233Z,961.45
2019-03-01T08:53:20.233Z,961.45
2019-03-01T08:54:22.896Z,961.44
2019-03-01T08:55:21.186Z,961.43
2019-03-01T08:56:25.873Z,961.46
2019-03-01T08:57:22.704Z,961.47
2019-03-01T08:58:20.161Z,961.43
2019-03-01T08:59:20.155Z,961.41
2019-03-01T09:00:23.102Z,961.50
2019-03-01T09:01:21.105Z,961.48
2019-03-01T09:02:20.563Z,961.45
2019-03-01T09:03:22.338Z,961.41
2019-03-01T09:04:21.629Z,961.41
2019-03-01T09:05:20.105Z,961.42
2019-03-01T09:06:20.055Z,961.41
2019-03-01T09:07:20.143Z,961.48
2019-03-01T09:08:20.122Z,961.41
2019-03-01T09:09:21.016Z,961.50
2019-03-01T09:10:20.021Z,961.46
2019-03-01T09:11:20.013Z,961.49
2019-03-01T09:12:20.033Z,961.42
2019-03-01T09:13:19.982Z,961.42
2019-03-01T09:14:22.828Z,961.47
2019-03-01T09:15:21.004Z,961.44
2019-03-01T09:16:19.971Z,961.46
2019-03-01T09:17:19.951Z,961.41
2019-03-01T09:18:19.938Z,961.43
2019-03-01T09:19:22.355Z,961.41
2019-03-01T09:20:20.930Z,961.41
2019-03-01T09:21:19.898Z,961.47
2019-03-01T09:22:19.922Z,961.48
2019-03-01T09:23:26.245Z,961.45
2019-03-01T09:24:21.020Z,961.43
2019-03-01T09:25:19.886Z,961.44
2019-03-01T09:26:20.685Z,961.40
2019-03-01T09:27:19.920Z,961.43
2019-03-01T09:28:19.823Z,961.45
2019-03-01T09:29:19.804Z,961.45
2019-03-01T09:30:19.801Z,961.42
2019-03-01T09:31:19.787Z,961.38
2019-03-01T09:32:19.817Z,961.38
2019-03-01T09:33:21.244Z,961.35
2019-03-01T09:34:19.805Z,961.37
2019-03-01T09:35:19.741Z,961.37
2019-03-01T09:36:21.413Z,961.37
2019-03-01T09:37:19.711Z,961.37
2019-03-01T09:38:19.782Z,961.31
2019-03-01T09:39:19.721Z,961.34
2019-03-01T09:40:19.694Z,961.37
2019-03-01T09:41:26.818Z,961.32
2019-03-01T09:43:53.228Z,961.25
2019-03-01T09:44:53.202Z,961.32
2019-03-01T09:45:53.181Z,961.30
2019-03-01T09:46:53.194Z,961.31
2019-03-01T09:47:53.176Z,961.30
2019-03-01T09:48:53.171Z,961.27
2019-03-01T09:49:56.347Z,961.27
2019-03-01T09:50:53.149Z,961.30
2019-03-01T09:51:53.125Z,961.31
2019-03-01T09:52:55.526Z,961.26
2019-03-01T09:53:54.093Z,961.37
2019-03-01T09:54:53.106Z,961.33
2019-03-01T09:55:53.117Z,961.27
2019-03-01T09:56:53.108Z,961.26
2019-03-01T09:57:53.075Z,961.27
2019-03-01T09:58:53.048Z,961.31
2019-03-01T09:59:53.042Z,961.24
2019-03-01T10:00:56.268Z,961.28
2019-03-01T10:01:53.048Z,961.25
2019-03-01T10:02:53.019Z,961.21
2019-03-01T10:03:53.050Z,961.15
2019-03-01T10:04:52.996Z,961.24
2019-03-01T10:05:53.004Z,961.29
2019-03-01T10:06:53.044Z,961.15
2019-03-01T10:07:52.950Z,961.26
2019-03-01T10:08:52.976Z,961.18
2019-03-01T10:09:52.935Z,961.21
2019-03-01T10:10:52.916Z,961.22
2019-03-01T10:11:59.958Z,961.22
2019-03-01T10:12:52.893Z,961.18
2019-03-01T10:13:52.920Z,961.28
2019-03-01T10:14:52.863Z,961.26
2019-03-01T10:15:52.868Z,961.20
2019-03-01T10:16:52.838Z,961.25
2019-03-01T10:17:52.846Z,961.27
2019-03-01T10:18:52.823Z,961.33
2019-03-01T10:19:52.816Z,961.23
2019-03-01T10:20:52.800Z,961.33
2019-03-01T10:21:52.824Z,961.30
2019-03-01T10:22:52.784Z,961.32
2019-03-01T10:23:52.759Z,961.25
2019-03-01T10:24:52.824Z,961.28
2019-03-01T10:25:59.876Z,961.25
2019-03-01T10:26:52.727Z,961.29
2019-03-01T10:27:52.725Z,961.29
2019-03-01T10:28:52.772Z,961.27
2019-03-01T10:29:52.735Z,961.32
2019-03-01T10:30:52.688Z,961.30
2019-03-01T10:31:52.678Z,961.31
2019-03-01T10:32:52.662Z,961.34
2019-03-01T10:33:52.659Z,961.31
2019-03-01T10:34:52.661Z,961.33
2019-03-01T10:35:52.639Z,961.32
2019-03-01T10:36:52.621Z,961.33
2019-03-01T10:37:53.674Z,961.40
2019-03-01T10:38:52.595Z,961.27
2019-03-01T10:39:55.563Z,961.31
2019-03-01T10:40:59.754Z,961.29
2019-03-01T10:41:52.601Z,961.30
2019-03-01T10:42:52.710Z,961.30
2019-03-01T10:43:52.577Z,961.32
2019-03-01T10:44:52.594Z,961.33
2019-03-01T10:45:52.616Z,961.31
2019-03-01T10:46:52.534Z,961.30
2019-03-01T10:47:52.524Z,961.32
2019-03-01T10:48:52.485Z,961.35
2019-03-01T10:49:52.487Z,961.34
2019-03-01T10:50:52.468Z,961.35
2019-03-01T10:51:52.480Z,961.37
2019-03-01T10:52:52.459Z,961.38
2019-03-01T10:53:52.476Z,961.39
2019-03-01T10:54:52.423Z,961.40
2019-03-01T10:55:52.442Z,961.39
2019-03-01T10:56:52.410Z,961.48
2019-03-01T10:57:52.473Z,961.39
2019-03-01T10:58:52.435Z,961.42
2019-03-01T10:59:52.405Z,961.44
2019-03-01T11:00:59.541Z,961.39
2019-03-01T11:01:52.350Z,961.52
2019-03-01T11:02:52.333Z,961.41
2019-03-01T11:03:52.348Z,961.36
2019-03-01T11:04:52.311Z,961.38
2019-03-01T11:05:53.039Z,961.45
2019-03-01T11:06:52.288Z,961.37
2019-03-01T11:07:52.282Z,961.41
2019-03-01T11:08:52.279Z,961.36
2019-03-01T11:09:52.263Z,961.36
2019-03-01T11:10:52.326Z,961.37
2019-03-01T11:11:52.231Z,961.46
2019-03-01T11:12:52.224Z,961.36
2019-03-01T11:13:52.224Z,961.39
2019-03-01T11:14:52.199Z,961.37
2019-03-01T11:15:52.200Z,961.39
2019-03-01T11:16:52.185Z,961.37
2019-03-01T11:17:52.181Z,961.39
2019-03-01T11:18:52.202Z,961.34
2019-03-01T11:19:52.152Z,961.34
2019-03-01T11:20:52.223Z,961.36
2019-03-01T11:21:52.157Z,961.38
2019-03-01T11:22:52.127Z,961.35
2019-03-01T11:23:52.102Z,961.36
2019-03-01T11:24:52.096Z,961.39
2019-03-01T11:25:52.123Z,961.38
2019-03-01T11:26:52.067Z,961.40
2019-03-01T11:27:52.069Z,961.39
2019-03-01T11:28:52.060Z,961.41
2019-03-01T11:29:52.032Z,961.43
2019-03-01T11:30:52.040Z,961.39
2019-03-01T11:31:52.069Z,961.37
2019-03-01T11:32:52.034Z,961.34
2019-03-01T11:33:51.991Z,961.39
2019-03-01T11:34:51.993Z,961.39
2019-03-01T11:35:51.972Z,961.34
2019-03-01T11:36:52.011Z,961.35
2019-03-01T11:37:51.962Z,961.34
2019-03-01T11:38:51.949Z,961.35
2019-03-01T11:39:51.924Z,961.39
2019-03-01T11:40:51.921Z,961.37
2019-03-01T11:41:51.934Z,961.39
2019-03-01T11:42:51.919Z,961.33
2019-03-01T11:43:51.883Z,961.40
2019-03-01T11:44:51.871Z,961.40
2019-03-01T11:45:51.857Z,961.38
2019-03-01T11:46:51.861Z,961.41
2019-03-01T11:47:51.871Z,961.42
2019-03-01T11:48:51.822Z,961.38
2019-03-01T11:49:51.818Z,961.36
2019-03-01T11:50:51.827Z,961.43
2019-03-01T11:51:51.810Z,961.43
2019-03-01T11:52:51.815Z,961.40
2019-03-01T11:53:51.778Z,961.43
2019-03-01T11:54:51.809Z,961.40
2019-03-01T11:55:51.803Z,961.42
2019-03-01T11:56:53.623Z,961.49
2019-03-01T11:57:51.759Z,961.46
2019-03-01T11:58:51.727Z,961.43
2019-03-01T11:59:51.714Z,961.44
2019-03-01T12:00:52.439Z,961.46
2019-03-01T12:01:51.746Z,961.44
2019-03-01T12:02:51.670Z,961.48
2019-03-01T12:03:51.668Z,961.45
2019-03-01T12:04:51.658Z,961.43
2019-03-01T12:05:51.649Z,961.44
2019-03-01T12:06:51.746Z,961.44
2019-03-01T12:07:51.637Z,961.45
2019-03-01T12:08:51.606Z,961.49
2019-03-01T12:09:51.604Z,961.40
2019-03-01T12:10:51.604Z,961.40
2019-03-01T12:11:51.579Z,961.39
2019-03-01T12:12:51.600Z,961.44
2019-03-01T12:13:51.571Z,961.48
2019-03-01T12:14:51.538Z,961.44
2019-03-01T12:15:59.195Z,961.42
2019-03-01T12:16:51.535Z,961.36
2019-03-01T12:17:51.537Z,961.41
2019-03-01T12:18:51.532Z,961.42
2019-03-01T12:19:51.500Z,961.39
2019-03-01T12:20:51.469Z,961.50
2019-03-01T12:21:51.491Z,961.44
2019-03-01T12:22:51.479Z,961.44
2019-03-01T12:23:51.477Z,961.49
2019-03-01T12:24:51.469Z,961.47
2019-03-01T12:25:51.432Z,961.41
2019-03-01T12:26:51.409Z,961.43
2019-03-01T12:27:51.408Z,961.42
2019-03-01T12:28:51.379Z,961.42
2019-03-01T12:29:51.376Z,961.44